Time;durP1;ratioP1;P1;durP2;ratioP2;P2;SDS_P1;SDS_P2;PMS_P1;PMS_P2;Temp;Humidity;BMP_temperature;BMP_pressure;BME280_temperature;BME280_humidity;BME280_pressure;Samples;Min_cycle;Max_cycle;Signal;HPM_P1;HPM_P2
2024/01/25 00:00:01;;;;;;;11.57;2.63;;;6.10;99.90;;;;;;4464814;28;655383;-68
2024/01/25 00:02:49;;;;;;;11.97;2.00;;;6.10;99.90;;;;;;4436425;28;656463;-68
2024/01/25 00:05:36;;;;;;;15.17;1.83;;;6.00;99.90;;;;;;4465559;28;655966;-68
2024/01/25 00:08:23;;;;;;;9.90;2.10;;;6.00;99.90;;;;;;4436711;27;656649;-68
2024/01/25 00:11:11;;;;;;;12.67;2.80;;;6.00;99.90;;;;;;4456451;28;656573;-68
2024/01/25 00:13:58;;;;;;;12.23;2.03;;;6.00;99.90;;;;;;4429845;27;657083;-68
2024/01/25 00:16:46;;;;;;;6.77;1.83;;;6.00;99.90;;;;;;4451960;28;657297;-68
2024/01/25 00:19:35;;;;;;;13.17;2.57;;;5.90;99.90;;;;;;4432197;28;655888;-69
2024/01/25 00:22:22;;;;;;;7.30;1.73;;;5.90;99.90;;;;;;4454608;28;656653;-68
2024/01/25 00:25:09;;;;;;;28.63;3.47;;;5.90;99.90;;;;;;4431417;27;655662;-68
2024/01/25 00:27:56;;;;;;;15.37;2.73;;;5.90;99.90;;;;;;4452116;28;656250;-68
2024/01/25 00:30:43;;;;;;;13.37;2.70;;;6.00;99.90;;;;;;4431736;28;657197;-68
2024/01/25 00:33:32;;;;;;;12.93;2.30;;;5.80;99.90;;;;;;4445998;28;657179;-68
2024/01/25 00:36:20;;;;;;;9.30;2.20;;;5.90;99.90;;;;;;4426362;27;657805;-68
2024/01/25 00:39:08;;;;;;;8.33;2.30;;;5.90;99.90;;;;;;4436788;28;655928;-70
2024/01/25 00:41:58;;;;;;;13.27;2.60;;;5.90;99.90;;;;;;4460612;28;655840;-69
2024/01/25 00:44:45;;;;;;;11.00;2.40;;;5.80;99.90;;;;;;4430681;28;657069;-69
2024/01/25 00:47:33;;;;;;;8.23;2.30;;;5.80;99.90;;;;;;4437427;27;657369;-68
2024/01/25 00:50:23;;;;;;;12.80;1.87;;;5.90;99.90;;;;;;4441914;28;655551;-68
2024/01/25 00:53:11;;;;;;;13.40;2.80;;;6.00;99.90;;;;;;4427109;28;656686;-68
2024/01/25 00:55:59;;;;;;;13.60;2.10;;;6.10;99.90;;;;;;4422839;28;656798;-69
2024/01/25 00:58:47;;;;;;;8.33;2.27;;;6.10;99.90;;;;;;4449144;28;657484;-68
2024/01/25 01:01:34;;;;;;;9.00;2.10;;;6.10;99.90;;;;;;4439728;27;656872;-68
2024/01/25 01:04:22;;;;;;;11.70;2.50;;;6.10;99.90;;;;;;4447631;28;656180;-68
2024/01/25 01:07:11;;;;;;;7.50;1.57;;;6.10;99.90;;;;;;4427770;28;657700;-68
2024/01/25 01:09:59;;;;;;;10.60;2.03;;;6.10;99.90;;;;;;4427509;28;655322;-68
2024/01/25 01:12:46;;;;;;;9.70;1.90;;;6.30;99.90;;;;;;4451415;28;657394;-68
2024/01/25 01:15:33;;;;;;;8.23;1.50;;;6.30;99.90;;;;;;4432207;28;655716;-68
2024/01/25 01:18:20;;;;;;;13.63;2.10;;;6.30;99.90;;;;;;4457509;28;656581;-68
2024/01/25 01:21:07;;;;;;;10.10;2.23;;;6.20;99.90;;;;;;4433992;28;656590;-69
2024/01/25 01:23:56;;;;;;;7.80;2.00;;;6.20;99.90;;;;;;4450879;28;656266;-68
2024/01/25 01:26:44;;;;;;;6.18;1.35;;;6.20;99.90;;;;;;4427885;28;655777;-68
2024/01/25 01:29:31;;;;;;;6.77;1.53;;;6.20;99.90;;;;;;4454180;28;656056;-68
2024/01/25 01:32:18;;;;;;;11.93;1.97;;;6.20;99.90;;;;;;4438665;28;655547;-69
2024/01/25 01:35:06;;;;;;;9.60;2.37;;;6.10;99.90;;;;;;4453015;28;657554;-68
2024/01/25 01:37:53;;;;;;;10.00;2.00;;;6.10;99.90;;;;;;4440593;28;655684;-69
2024/01/25 01:40:42;;;;;;;13.57;2.23;;;6.00;99.90;;;;;;4456235;28;656451;-68
2024/01/25 01:43:29;;;;;;;14.07;2.40;;;6.00;99.90;;;;;;4431702;28;657684;-68
2024/01/25 01:46:21;;;;;;;10.17;2.30;;;6.00;99.90;;;;;;4451058;28;656766;-68
2024/01/25 01:49:09;;;;;;;13.70;1.97;;;6.00;99.90;;;;;;4423054;28;656807;-68
2024/01/25 01:51:56;;;;;;;10.93;2.13;;;5.90;99.90;;;;;;4446954;28;656685;-68
2024/01/25 01:54:43;;;;;;;11.37;2.43;;;6.00;99.90;;;;;;4421795;28;656544;-68
2024/01/25 01:57:32;;;;;;;8.63;1.77;;;6.10;99.90;;;;;;4459559;27;656843;-68
2024/01/25 02:00:19;;;;;;;8.10;1.60;;;6.10;99.90;;;;;;4428906;28;656339;-68
2024/01/25 02:03:06;;;;;;;3.67;1.53;;;6.10;99.90;;;;;;4448923;28;655474;-68
2024/01/25 02:05:53;;;;;;;10.27;2.17;;;6.00;99.90;;;;;;4436644;28;655933;-68
2024/01/25 02:08:40;;;;;;;5.57;1.30;;;6.00;99.90;;;;;;4449261;28;657450;-68
2024/01/25 02:11:28;;;;;;;14.20;2.50;;;6.00;99.90;;;;;;4429825;28;655962;-69
2024/01/25 02:14:16;;;;;;;6.93;1.50;;;6.00;99.90;;;;;;4453535;28;657731;-68
2024/01/25 02:17:03;;;;;;;19.60;1.97;;;6.00;99.90;;;;;;4443404;28;655342;-68
2024/01/25 02:19:51;;;;;;;8.80;1.80;;;5.90;99.90;;;;;;4449628;28;656919;-68
2024/01/25 02:22:39;;;;;;;7.03;2.10;;;5.90;99.90;;;;;;4420061;28;655646;-68
2024/01/25 02:25:26;;;;;;;10.77;2.03;;;5.90;99.90;;;;;;4454705;28;655593;-68
2024/01/25 02:28:14;;;;;;;12.60;2.30;;;5.90;99.90;;;;;;4430228;27;656848;-69
2024/01/25 02:31:01;;;;;;;3.57;0.73;;;5.90;99.90;;;;;;4454829;28;657090;-68
2024/01/25 02:33:49;;;;;;;11.77;2.13;;;5.90;99.90;;;;;;4438207;28;656203;-68
2024/01/25 02:36:36;;;;;;;8.47;1.83;;;5.90;99.90;;;;;;4458649;28;657079;-69
2024/01/25 02:39:25;;;;;;;10.30;1.77;;;5.90;99.90;;;;;;4426283;28;655897;-68
2024/01/25 02:42:13;;;;;;;11.23;2.03;;;6.00;99.90;;;;;;4451750;27;656600;-68
2024/01/25 02:45:00;;;;;;;10.80;2.20;;;5.80;99.90;;;;;;4432057;28;656716;-68
2024/01/25 02:47:48;;;;;;;9.98;1.92;;;5.80;99.90;;;;;;4444435;27;656614;-69
2024/01/25 02:50:35;;;;;;;6.13;1.30;;;5.80;99.90;;;;;;4460867;27;656606;-68
2024/01/25 02:53:22;;;;;;;9.37;2.10;;;5.90;99.90;;;;;;4444425;28;655260;-69
2024/01/25 02:56:11;;;;;;;7.97;2.00;;;5.90;99.90;;;;;;4458858;28;655271;-68
2024/01/25 02:58:58;;;;;;;11.13;2.25;;;5.90;99.90;;;;;;4438303;28;655314;-69
2024/01/25 03:01:46;;;;;;;12.40;2.33;;;5.80;99.90;;;;;;4461345;27;656607;-68
2024/01/25 03:04:33;;;;;;;5.80;1.10;;;5.90;99.90;;;;;;4437528;28;657431;-69
2024/01/25 03:07:20;;;;;;;6.97;1.40;;;5.90;99.90;;;;;;4451625;28;656443;-68
2024/01/25 03:10:08;;;;;;;12.77;2.13;;;6.00;99.90;;;;;;4447354;28;656106;-69
2024/01/25 03:12:57;;;;;;;10.40;1.73;;;5.90;99.90;;;;;;4455772;28;658039;-68
2024/01/25 03:15:44;;;;;;;14.53;2.87;;;5.90;99.90;;;;;;4434949;28;657615;-69
2024/01/25 03:18:31;;;;;;;11.70;1.90;;;5.90;99.90;;;;;;4462522;28;655947;-68
2024/01/25 03:21:19;;;;;;;6.47;1.67;;;5.90;99.90;;;;;;4413539;28;657377;-68
2024/01/25 03:24:06;;;;;;;10.67;2.20;;;5.90;99.90;;;;;;4452845;27;656331;-68
2024/01/25 03:26:54;;;;;;;14.30;1.90;;;5.90;99.90;;;;;;4427472;28;656633;-69
2024/01/25 03:29:43;;;;;;;9.30;1.57;;;5.90;99.90;;;;;;4451021;28;657171;-68
2024/01/25 03:32:30;;;;;;;10.63;2.03;;;5.90;99.90;;;;;;4429272;28;655947;-68
2024/01/25 03:35:18;;;;;;;12.57;2.27;;;5.90;99.90;;;;;;4429195;28;657199;-69
2024/01/25 03:38:05;;;;;;;10.33;1.80;;;6.00;99.90;;;;;;4450331;28;657836;-68
2024/01/25 03:40:52;;;;;;;9.67;2.00;;;6.10;99.90;;;;;;4426978;28;656712;-69
2024/01/25 03:43:40;;;;;;;17.53;2.00;;;6.10;99.90;;;;;;4450799;28;655787;-69
2024/01/25 03:46:28;;;;;;;2.10;0.73;;;6.10;99.90;;;;;;4454744;27;657127;-68
2024/01/25 03:49:16;;;;;;;10.97;1.67;;;6.10;99.90;;;;;;4437699;28;655806;-68
2024/01/25 03:52:03;;;;;;;7.93;0.90;;;6.20;99.90;;;;;;4437461;28;656702;-69
2024/01/25 03:54:51;;;;;;;11.83;2.03;;;6.20;99.90;;;;;;4448909;28;655990;-68
2024/01/25 03:57:39;;;;;;;11.23;1.83;;;6.20;99.90;;;;;;4428168;28;657195;-69
2024/01/25 04:00:26;;;;;;;13.70;2.07;;;6.20;99.90;;;;;;4446693;28;656573;-68
2024/01/25 04:03:15;;;;;;;14.07;2.03;;;6.20;99.90;;;;;;4421088;28;656765;-69
2024/01/25 04:06:02;;;;;;;9.75;1.83;;;6.10;99.90;;;;;;4437951;28;657436;-68
2024/01/25 04:08:50;;;;;;;10.20;1.60;;;6.20;99.90;;;;;;4452445;28;655618;-68
2024/01/25 04:11:37;;;;;;;11.07;1.53;;;6.20;99.90;;;;;;4441539;28;656808;-68
2024/01/25 04:14:24;;;;;;;8.37;1.80;;;6.10;99.90;;;;;;4421656;28;658112;-68
2024/01/25 04:17:11;;;;;;;9.90;1.37;;;6.10;99.90;;;;;;4451348;28;655312;-68
2024/01/25 04:20:00;;;;;;;10.77;1.70;;;6.10;99.90;;;;;;4422318;28;656114;-69
2024/01/25 04:22:47;;;;;;;12.13;2.07;;;6.20;99.90;;;;;;4444273;28;656326;-68
2024/01/25 04:25:35;;;;;;;11.83;1.57;;;6.30;99.90;;;;;;4458509;28;658515;-68
2024/01/25 04:28:22;;;;;;;5.30;1.00;;;6.20;99.90;;;;;;4439048;28;656924;-69
2024/01/25 04:31:10;;;;;;;12.40;1.90;;;6.20;99.90;;;;;;4444602;28;655710;-68
2024/01/25 04:33:58;;;;;;;11.43;1.37;;;6.20;99.90;;;;;;4448327;28;656558;-69
2024/01/25 04:36:46;;;;;;;12.53;2.17;;;6.20;99.90;;;;;;4452255;28;658044;-68
2024/01/25 04:39:33;;;;;;;13.07;2.43;;;6.20;99.90;;;;;;4434556;28;656686;-69
2024/01/25 04:42:21;;;;;;;7.30;1.60;;;6.20;99.90;;;;;;4448777;28;656889;-69
2024/01/25 04:45:08;;;;;;;10.73;1.80;;;6.10;99.90;;;;;;4439323;28;656176;-69
2024/01/25 04:47:56;;;;;;;13.63;1.83;;;6.20;99.90;;;;;;4443594;27;656831;-69
2024/01/25 04:50:43;;;;;;;12.93;1.37;;;6.20;99.90;;;;;;4441639;28;657212;-68
2024/01/25 04:53:31;;;;;;;5.70;1.50;;;6.10;99.90;;;;;;4450753;28;657172;-68
2024/01/25 04:56:18;;;;;;;12.63;2.73;;;6.20;99.90;;;;;;4425713;28;656134;-68
2024/01/25 04:59:06;;;;;;;16.07;2.60;;;6.00;99.90;;;;;;4450016;28;657325;-69
2024/01/25 05:01:55;;;;;;;10.50;1.93;;;5.80;99.90;;;;;;4422683;28;656880;-69
2024/01/25 05:04:42;;;;;;;5.33;1.00;;;5.70;99.90;;;;;;4451665;28;656773;-70
2024/01/25 05:07:30;;;;;;;8.37;1.83;;;5.60;99.90;;;;;;4448731;28;655748;-69
2024/01/25 05:10:18;;;;;;;16.13;2.57;;;5.50;99.90;;;;;;4453665;28;654784;-69
2024/01/25 05:13:06;;;;;;;15.05;2.20;;;5.40;99.90;;;;;;4433612;28;656822;-69
2024/01/25 05:15:53;;;;;;;6.67;1.87;;;5.40;99.90;;;;;;4436505;28;656743;-69
2024/01/25 05:18:40;;;;;;;12.93;2.40;;;5.40;99.90;;;;;;4453816;28;656050;-69
2024/01/25 05:21:27;;;;;;;3.30;0.97;;;5.30;99.90;;;;;;4447908;28;656933;-69
2024/01/25 05:24:15;;;;;;;15.00;2.03;;;5.30;99.90;;;;;;4443309;28;655239;-69
2024/01/25 05:27:03;;;;;;;8.80;1.90;;;5.30;99.90;;;;;;4454935;28;656690;-69
2024/01/25 05:29:50;;;;;;;14.53;2.30;;;5.40;99.90;;;;;;4437053;28;655887;-69
2024/01/25 05:32:38;;;;;;;18.13;2.80;;;5.40;99.90;;;;;;4444446;28;656687;-69
2024/01/25 05:35:25;;;;;;;10.83;2.43;;;5.40;99.90;;;;;;4458967;28;656978;-69
2024/01/25 05:38:12;;;;;;;10.17;1.60;;;5.40;99.90;;;;;;4441050;28;657269;-69
2024/01/25 05:41:00;;;;;;;8.77;1.53;;;5.40;99.90;;;;;;4451247;28;656751;-68
2024/01/25 05:43:49;;;;;;;12.07;1.97;;;5.30;99.90;;;;;;4458628;28;656076;-69
2024/01/25 05:46:36;;;;;;;6.80;1.93;;;5.20;99.90;;;;;;4459457;28;656334;-68
2024/01/25 05:49:23;;;;;;;12.00;2.53;;;5.10;99.90;;;;;;4445103;28;655844;-68
2024/01/25 05:52:10;;;;;;;15.13;2.00;;;5.00;99.90;;;;;;4455571;28;656557;-69
2024/01/25 05:54:58;;;;;;;15.53;2.70;;;4.90;99.90;;;;;;4444316;28;656888;-68
2024/01/25 05:57:45;;;;;;;9.13;1.10;;;4.90;99.90;;;;;;4468395;28;657711;-69
2024/01/25 06:00:34;;;;;;;11.03;1.97;;;4.90;99.90;;;;;;4444774;28;655445;-69
2024/01/25 06:03:22;;;;;;;7.00;2.00;;;4.80;99.90;;;;;;4451383;28;656854;-68
2024/01/25 06:06:09;;;;;;;9.43;2.07;;;4.80;99.90;;;;;;4441773;28;655463;-68
2024/01/25 06:08:56;;;;;;;17.73;2.50;;;4.80;99.90;;;;;;4454597;28;655573;-68
2024/01/25 06:11:43;;;;;;;13.70;3.10;;;4.80;99.90;;;;;;4438465;28;656808;-68
2024/01/25 06:14:30;;;;;;;15.20;2.60;;;4.90;99.90;;;;;;4446296;28;656674;-68
2024/01/25 06:17:19;;;;;;;11.23;2.43;;;4.80;99.90;;;;;;4441786;28;657087;-69
2024/01/25 06:20:07;;;;;;;13.60;3.10;;;4.80;99.90;;;;;;4449783;28;656613;-68
2024/01/25 06:22:55;;;;;;;14.43;2.50;;;4.80;99.90;;;;;;4439357;28;657627;-68
2024/01/25 06:25:42;;;;;;;12.97;2.53;;;4.80;99.90;;;;;;4466522;28;656627;-68
2024/01/25 06:28:29;;;;;;;11.23;2.57;;;4.80;99.90;;;;;;4428780;28;657518;-68
2024/01/25 06:31:16;;;;;;;18.87;2.93;;;4.70;99.90;;;;;;4459671;28;656314;-67
2024/01/25 06:34:05;;;;;;;18.97;3.33;;;4.60;99.90;;;;;;4437299;28;657148;-68
2024/01/25 06:36:52;;;;;;;15.13;3.17;;;4.50;99.90;;;;;;4442812;28;656447;-68
2024/01/25 06:39:40;;;;;;;11.40;2.77;;;4.60;99.90;;;;;;4463276;28;656927;-68
2024/01/25 06:42:27;;;;;;;11.40;1.90;;;4.50;99.90;;;;;;4445963;28;656518;-68
2024/01/25 06:45:15;;;;;;;12.93;2.93;;;4.60;99.90;;;;;;4460938;28;656540;-68
2024/01/25 06:48:02;;;;;;;14.03;2.40;;;4.50;99.90;;;;;;4444996;28;656868;-69
2024/01/25 06:50:51;;;;;;;15.45;2.22;;;4.50;99.90;;;;;;4455392;27;657268;-68
2024/01/25 06:53:38;;;;;;;4.63;1.63;;;4.50;99.90;;;;;;4426303;28;656818;-68
2024/01/25 06:56:26;;;;;;;20.27;3.00;;;4.50;99.90;;;;;;4453509;27;655641;-68
2024/01/25 06:59:13;;;;;;;14.30;2.33;;;4.40;99.90;;;;;;4429967;28;656984;-68
2024/01/25 07:02:01;;;;;;;14.20;2.73;;;4.40;99.90;;;;;;4458268;27;657138;-68
2024/01/25 07:04:48;;;;;;;15.87;3.00;;;4.30;99.90;;;;;;4435925;28;657360;-68
2024/01/25 07:07:38;;;;;;;9.20;2.40;;;4.30;99.90;;;;;;4458589;28;657187;-68
2024/01/25 07:10:25;;;;;;;13.73;2.53;;;4.30;99.90;;;;;;4433348;28;656579;-68
2024/01/25 07:13:12;;;;;;;10.80;2.07;;;4.30;99.90;;;;;;4429634;27;656399;-69
2024/01/25 07:16:00;;;;;;;13.47;3.20;;;4.30;99.90;;;;;;4447841;28;656928;-69
2024/01/25 07:18:47;;;;;;;17.43;3.33;;;4.30;99.90;;;;;;4459744;27;656722;-68
2024/01/25 07:21:34;;;;;;;16.37;3.30;;;4.30;99.90;;;;;;4437826;27;657200;-69
2024/01/25 07:24:23;;;;;;;9.53;2.77;;;4.30;99.90;;;;;;4452723;28;656313;-68
2024/01/25 07:27:11;;;;;;;6.30;1.53;;;4.30;99.90;;;;;;4437465;28;655987;-69
2024/01/25 07:29:58;;;;;;;12.70;2.47;;;4.30;99.90;;;;;;4440616;28;655943;-69
2024/01/25 07:32:46;;;;;;;9.07;2.40;;;4.30;99.90;;;;;;4454759;28;656500;-69
2024/01/25 07:35:33;;;;;;;15.60;3.20;;;4.40;99.90;;;;;;4440804;28;656020;-69
2024/01/25 07:38:20;;;;;;;23.60;3.57;;;4.30;99.90;;;;;;4462866;28;657783;-69
2024/01/25 07:41:09;;;;;;;11.10;3.38;;;4.30;99.90;;;;;;4434655;28;656765;-69
2024/01/25 07:43:56;;;;;;;17.63;3.50;;;4.30;99.90;;;;;;4418656;28;656747;-69
2024/01/25 07:46:43;;;;;;;10.17;2.30;;;4.30;99.90;;;;;;4405693;28;656730;-69
2024/01/25 07:49:30;;;;;;;10.57;2.80;;;4.30;99.90;;;;;;4413121;28;657268;-69
2024/01/25 07:52:18;;;;;;;12.18;2.42;;;4.30;99.90;;;;;;4408019;28;656661;-69
2024/01/25 07:55:05;;;;;;;10.73;2.30;;;4.30;99.90;;;;;;4421691;28;657020;-69
2024/01/25 07:57:54;;;;;;;18.63;3.40;;;4.20;99.90;;;;;;4406985;28;656366;-69
2024/01/25 08:00:42;;;;;;;10.57;2.07;;;4.10;99.90;;;;;;4428230;28;657044;-68
2024/01/25 08:03:29;;;;;;;10.13;2.90;;;4.10;99.90;;;;;;4406957;28;657037;-69
2024/01/25 08:06:16;;;;;;;12.10;2.77;;;4.00;99.90;;;;;;4426118;28;656442;-69
2024/01/25 08:09:04;;;;;;;14.10;3.38;;;4.00;99.90;;;;;;4399240;28;656729;-69
2024/01/25 08:11:51;;;;;;;9.23;3.30;;;4.00;99.90;;;;;;4419940;28;657350;-68
2024/01/25 08:14:40;;;;;;;21.15;4.95;;;4.00;99.90;;;;;;4406939;28;656301;-69
2024/01/25 08:17:27;;;;;;;19.67;4.03;;;4.00;99.90;;;;;;4410925;28;656290;-69
2024/01/25 08:20:15;;;;;;;20.17;5.50;;;4.00;99.90;;;;;;4426221;28;656295;-69
2024/01/25 08:23:02;;;;;;;25.53;5.60;;;3.90;99.90;;;;;;4421522;28;656979;-68
2024/01/25 08:25:49;;;;;;;18.47;4.37;;;3.90;99.90;;;;;;4407784;28;657781;-69
2024/01/25 08:28:37;;;;;;;15.13;4.53;;;3.90;99.90;;;;;;4416808;28;656330;-69
2024/01/25 08:31:25;;;;;;;17.10;4.83;;;4.00;99.90;;;;;;4398676;28;656791;-69
2024/01/25 08:34:12;;;;;;;19.23;5.73;;;4.00;99.90;;;;;;4409173;28;656332;-71
2024/01/25 08:37:00;;;;;;;13.87;4.77;;;4.10;99.90;;;;;;4429994;28;657322;-72
2024/01/25 08:39:49;;;;;;;15.77;3.90;;;4.00;99.90;;;;;;4422363;28;657236;-72
2024/01/25 08:42:37;;;;;;;16.80;4.03;;;4.00;99.90;;;;;;4429030;28;657016;-72
2024/01/25 08:45:24;;;;;;;13.27;3.90;;;4.10;99.90;;;;;;4441910;28;656786;-72
2024/01/25 08:48:13;;;;;;;12.20;3.53;;;4.10;99.90;;;;;;4453508;27;656218;-72
2024/01/25 08:51:00;;;;;;;29.33;6.03;;;4.20;99.90;;;;;;4422660;28;657275;-72
2024/01/25 08:53:50;;;;;;;13.97;3.73;;;4.30;99.90;;;;;;4435815;28;656539;-72
2024/01/25 08:56:37;;;;;;;15.50;2.50;;;4.40;99.90;;;;;;4437985;28;656539;-70
2024/01/25 08:59:24;;;;;;;10.93;2.73;;;4.40;99.90;;;;;;4455156;28;656903;-71
2024/01/25 09:02:12;;;;;;;16.03;3.07;;;4.40;99.90;;;;;;4438246;28;656534;-71
2024/01/25 09:05:00;;;;;;;10.50;2.67;;;4.60;99.90;;;;;;4429622;28;656787;-72
2024/01/25 09:07:50;;;;;;;9.13;2.45;;;4.60;99.90;;;;;;4437635;28;656634;-72
2024/01/25 09:10:37;;;;;;;8.90;1.90;;;4.60;99.90;;;;;;4436036;28;655718;-72
2024/01/25 09:13:25;;;;;;;19.10;3.60;;;4.70;99.90;;;;;;4446734;28;655602;-72
2024/01/25 09:16:12;;;;;;;16.43;2.63;;;4.70;99.90;;;;;;4454780;28;656299;-71
2024/01/25 09:18:59;;;;;;;11.90;3.10;;;4.80;99.90;;;;;;4439225;28;657001;-73
2024/01/25 09:21:47;;;;;;;10.57;2.10;;;4.70;99.90;;;;;;4449295;28;656017;-73
2024/01/25 09:24:36;;;;;;;14.60;2.53;;;4.70;99.90;;;;;;4437506;28;657997;-72
2024/01/25 09:27:23;;;;;;;19.47;3.10;;;4.60;99.90;;;;;;4429240;28;656637;-73
2024/01/25 09:30:11;;;;;;;18.60;2.97;;;4.60;99.90;;;;;;4451300;28;656962;-71
2024/01/25 09:32:58;;;;;;;19.97;4.37;;;4.60;99.90;;;;;;4441915;28;656620;-73
2024/01/25 09:35:47;;;;;;;13.40;2.87;;;4.50;99.90;;;;;;4451236;28;656743;-72
2024/01/25 09:38:35;;;;;;;11.13;2.53;;;4.50;99.90;;;;;;4432765;28;656578;-72
2024/01/25 09:41:23;;;;;;;10.17;2.50;;;4.50;99.90;;;;;;4426585;28;656681;-71
2024/01/25 09:44:10;;;;;;;17.47;3.90;;;4.50;99.90;;;;;;4460956;28;657550;-72
2024/01/25 09:46:57;;;;;;;16.77;3.43;;;4.50;99.90;;;;;;4436964;28;656713;-72
2024/01/25 09:49:45;;;;;;;18.37;3.23;;;4.40;99.90;;;;;;4459383;28;657131;-71
2024/01/25 09:52:33;;;;;;;15.57;3.70;;;4.50;99.90;;;;;;4445579;28;656521;-71
2024/01/25 09:55:21;;;;;;;17.13;3.33;;;4.50;99.90;;;;;;4458473;28;657515;-68
2024/01/25 09:58:08;;;;;;;18.30;3.20;;;4.50;99.90;;;;;;4438608;28;656668;-70
2024/01/25 10:00:56;;;;;;;11.17;3.07;;;4.50;99.90;;;;;;4450992;28;657080;-69
2024/01/25 10:03:43;;;;;;;16.10;3.30;;;4.50;99.90;;;;;;4436136;28;656446;-70
2024/01/25 10:06:30;;;;;;;23.97;3.93;;;4.40;99.90;;;;;;4447760;28;656774;-70
2024/01/25 10:09:17;;;;;;;24.10;4.63;;;4.40;99.90;;;;;;4435372;28;656877;-71
2024/01/25 10:12:07;;;;;;;24.83;4.40;;;4.30;99.90;;;;;;4460765;28;657613;-69
2024/01/25 10:14:54;;;;;;;23.77;4.67;;;4.30;99.90;;;;;;4421508;28;656541;-69
2024/01/25 10:17:42;;;;;;;19.10;3.83;;;4.30;99.90;;;;;;4452781;28;656804;-69
2024/01/25 10:20:31;;;;;;;20.73;4.47;;;4.30;99.90;;;;;;4439011;28;656956;-71
2024/01/25 10:23:19;;;;;;;13.77;3.33;;;4.30;99.90;;;;;;4432616;28;657127;-70
2024/01/25 10:26:06;;;;;;;29.47;5.13;;;4.40;99.90;;;;;;4458050;27;657519;-73
2024/01/25 10:28:55;;;;;;;9.10;2.13;;;4.50;99.90;;;;;;4433169;28;656545;-72
2024/01/25 10:31:42;;;;;;;26.63;4.87;;;4.60;99.90;;;;;;4450604;28;656536;-72
2024/01/25 10:34:30;;;;;;;17.40;3.90;;;4.60;99.90;;;;;;4464363;28;657709;-70
2024/01/25 10:37:17;;;;;;;16.97;2.80;;;4.70;99.90;;;;;;4454452;28;656790;-72
2024/01/25 10:40:06;;;;;;;24.10;3.10;;;4.80;99.90;;;;;;4459765;27;657377;-71
2024/01/25 10:42:53;;;;;;;11.73;2.80;;;4.90;99.90;;;;;;4435539;28;656582;-71
2024/01/25 10:45:42;;;;;;;16.63;3.10;;;5.00;99.90;;;;;;4452096;28;657680;-70
2024/01/25 10:48:29;;;;;;;19.70;3.17;;;5.10;99.90;;;;;;4427604;27;656722;-72
2024/01/25 10:51:18;;;;;;;19.10;3.10;;;5.10;99.90;;;;;;4456699;27;655765;-71
2024/01/25 10:54:06;;;;;;;16.93;3.37;;;5.10;99.90;;;;;;4431718;28;657224;-72
2024/01/25 10:56:53;;;;;;;18.07;2.87;;;5.20;99.90;;;;;;4430352;27;656599;-72
2024/01/25 10:59:40;;;;;;;21.40;3.23;;;5.20;99.90;;;;;;4448996;28;657356;-72
2024/01/25 11:02:29;;;;;;;17.47;2.83;;;5.20;99.90;;;;;;4433872;27;656568;-71
2024/01/25 11:05:17;;;;;;;12.07;2.33;;;5.20;99.90;;;;;;4447096;28;656180;-71
2024/01/25 11:08:05;;;;;;;20.00;3.73;;;5.20;99.90;;;;;;4429388;27;657121;-72
2024/01/25 11:10:52;;;;;;;16.83;3.40;;;5.20;99.90;;;;;;4449036;28;656767;-72
2024/01/25 11:13:40;;;;;;;13.80;2.90;;;5.30;99.90;;;;;;4454664;28;656745;-72
2024/01/25 11:16:30;;;;;;;21.57;3.20;;;5.30;99.90;;;;;;4445149;28;656347;-71
2024/01/25 11:19:19;;;;;;;21.27;3.50;;;5.30;99.90;;;;;;4438241;28;656403;-72
2024/01/25 11:22:07;;;;;;;20.93;3.23;;;5.30;99.90;;;;;;4459403;28;657504;-71
2024/01/25 11:24:54;;;;;;;18.97;3.37;;;5.30;99.90;;;;;;4429231;28;656906;-72
2024/01/25 11:27:41;;;;;;;17.93;3.00;;;5.30;99.90;;;;;;4447593;28;656086;-72
2024/01/25 11:30:29;;;;;;;14.90;2.67;;;5.30;99.90;;;;;;4437163;28;657196;-71
2024/01/25 11:33:16;;;;;;;15.63;3.47;;;5.20;99.90;;;;;;4452802;28;656741;-72
2024/01/25 11:36:07;;;;;;;17.30;3.70;;;5.20;99.90;;;;;;4418935;28;656803;-72
2024/01/25 11:38:54;;;;;;;20.30;4.73;;;5.20;99.90;;;;;;4433521;28;656483;-72
2024/01/25 11:41:41;;;;;;;13.67;3.20;;;5.30;99.90;;;;;;4452472;28;656618;-71
2024/01/25 11:44:28;;;;;;;6.50;1.93;;;5.20;99.90;;;;;;4418257;27;656785;-72
2024/01/25 11:47:15;;;;;;;22.13;3.87;;;5.30;99.90;;;;;;4449023;28;656367;-72
2024/01/25 11:50:02;;;;;;;14.73;2.92;;;5.30;99.90;;;;;;4418450;28;656924;-72
2024/01/25 11:52:51;;;;;;;10.93;3.13;;;5.30;99.90;;;;;;4460068;28;657356;-72
2024/01/25 11:55:39;;;;;;;15.83;2.27;;;5.30;99.90;;;;;;4422981;28;657032;-72
2024/01/25 11:58:27;;;;;;;16.93;3.20;;;5.10;99.90;;;;;;4436941;28;657197;-72
2024/01/25 12:01:15;;;;;;;16.40;3.33;;;5.00;99.90;;;;;;4451418;28;656871;-71
2024/01/25 12:04:02;;;;;;;18.87;3.40;;;4.90;99.90;;;;;;4443306;28;657113;-72
2024/01/25 12:06:49;;;;;;;20.47;3.70;;;4.90;99.90;;;;;;4422787;28;656747;-72
2024/01/25 12:09:38;;;;;;;17.70;3.65;;;4.90;99.90;;;;;;4450444;28;656728;-71
2024/01/25 12:12:25;;;;;;;15.00;3.20;;;4.80;99.90;;;;;;4429677;28;656913;-71
2024/01/25 12:15:12;;;;;;;11.53;3.13;;;4.90;99.90;;;;;;4434313;28;656878;-70
2024/01/25 12:18:00;;;;;;;16.37;3.57;;;4.80;99.90;;;;;;4456549;27;655797;-71
2024/01/25 12:20:47;;;;;;;18.93;3.43;;;4.80;99.90;;;;;;4447673;28;656553;-71
2024/01/25 12:23:35;;;;;;;18.87;3.67;;;4.90;99.90;;;;;;4458322;28;656696;-71
2024/01/25 12:26:24;;;;;;;21.63;4.53;;;4.90;99.90;;;;;;4430852;28;656984;-71
2024/01/25 12:29:11;;;;;;;16.13;4.00;;;4.90;99.90;;;;;;4452660;28;656278;-71
2024/01/25 12:31:58;;;;;;;13.88;3.10;;;5.00;99.90;;;;;;4418542;28;656518;-71
2024/01/25 12:34:54;;;;;;;20.40;3.17;;;5.10;99.90;;;;;;4452377;28;657678;-71
2024/01/25 12:37:41;;;;;;;17.17;3.17;;;5.10;99.90;;;;;;4418660;28;656561;-71
2024/01/25 12:40:29;;;;;;;13.70;3.37;;;5.20;99.90;;;;;;4429915;28;656736;-70
2024/01/25 12:43:17;;;;;;;12.90;3.33;;;5.20;99.90;;;;;;4446260;27;656976;-70
2024/01/25 12:46:05;;;;;;;17.13;3.93;;;5.10;99.90;;;;;;4433994;27;657303;-71
2024/01/25 12:48:55;;;;;;;13.20;3.60;;;5.10;99.90;;;;;;4438004;28;656859;-70
2024/01/25 12:51:42;;;;;;;25.57;3.43;;;5.20;99.90;;;;;;4463967;27;656259;-71
2024/01/25 12:54:29;;;;;;;13.53;2.97;;;5.10;99.90;;;;;;4441229;28;657396;-71
2024/01/25 12:57:16;;;;;;;15.33;3.80;;;5.10;99.90;;;;;;4438939;28;656666;-71
2024/01/25 13:00:06;;;;;;;12.23;3.53;;;5.10;99.90;;;;;;4435012;27;656943;-71
2024/01/25 13:02:54;;;;;;;10.23;1.77;;;5.10;99.90;;;;;;4427181;28;656957;-71
2024/01/25 13:05:41;;;;;;;21.53;4.27;;;5.00;99.90;;;;;;4449977;28;656511;-71
2024/01/25 13:08:28;;;;;;;17.60;4.00;;;5.10;99.90;;;;;;4428815;28;656336;-71
2024/01/25 13:11:15;;;;;;;15.88;3.25;;;5.00;99.90;;;;;;4450694;28;656215;-70
2024/01/25 13:14:03;;;;;;;15.20;2.93;;;5.00;99.90;;;;;;4422092;28;656700;-71
2024/01/25 13:16:51;;;;;;;6.73;2.03;;;5.10;99.90;;;;;;4451523;28;657645;-71
2024/01/25 13:19:38;;;;;;;16.20;3.40;;;5.10;99.90;;;;;;4426778;28;656320;-72
2024/01/25 13:22:26;;;;;;;18.07;3.53;;;5.10;99.90;;;;;;4459798;28;656718;-71
2024/01/25 13:25:14;;;;;;;19.43;4.77;;;5.10;99.90;;;;;;4431262;28;657168;-71
2024/01/25 13:28:02;;;;;;;20.92;4.38;;;5.10;99.90;;;;;;4453390;28;656101;-71
2024/01/25 13:30:49;;;;;;;24.03;4.30;;;5.10;99.90;;;;;;4433482;28;657159;-72
2024/01/25 13:33:38;;;;;;;1.97;1.10;;;5.20;99.90;;;;;;4446745;28;656484;-71
2024/01/25 13:36:25;;;;;;;21.77;3.97;;;5.20;99.90;;;;;;4426103;28;656310;-71
2024/01/25 13:39:13;;;;;;;12.27;2.80;;;5.10;99.90;;;;;;4433512;28;656881;-71
2024/01/25 13:42:00;;;;;;;15.70;3.40;;;5.10;99.90;;;;;;4451574;28;656478;-71
2024/01/25 13:44:47;;;;;;;19.57;3.67;;;5.10;99.90;;;;;;4457879;28;656794;-71
2024/01/25 13:47:35;;;;;;;17.13;3.63;;;5.10;99.90;;;;;;4453700;28;657405;-72
2024/01/25 13:50:23;;;;;;;15.80;3.43;;;5.10;99.90;;;;;;4445806;28;656472;-71
2024/01/25 13:53:10;;;;;;;15.00;3.30;;;5.00;99.90;;;;;;4416432;28;657664;-71
2024/01/25 13:55:58;;;;;;;13.90;3.00;;;5.00;99.90;;;;;;4432912;28;656984;-71
2024/01/25 13:58:45;;;;;;;18.93;3.43;;;5.00;99.90;;;;;;4464522;28;656496;-71
2024/01/25 14:01:32;;;;;;;18.30;3.30;;;4.90;99.90;;;;;;4448531;28;656999;-71
2024/01/25 14:04:20;;;;;;;13.87;2.97;;;4.90;99.90;;;;;;4447846;28;658089;-71
2024/01/25 14:07:09;;;;;;;21.67;3.77;;;4.90;99.90;;;;;;4458442;28;655882;-71
2024/01/25 14:09:56;;;;;;;16.83;4.50;;;4.90;99.90;;;;;;4450432;28;656750;-71
2024/01/25 14:12:43;;;;;;;13.03;3.27;;;4.80;99.90;;;;;;4436385;28;656313;-72
2024/01/25 14:15:32;;;;;;;11.17;3.00;;;4.90;99.90;;;;;;4456699;28;656689;-71
2024/01/25 14:18:19;;;;;;;21.17;3.90;;;4.90;99.90;;;;;;4435064;28;656955;-71
2024/01/25 14:21:06;;;;;;;13.25;2.75;;;4.90;99.90;;;;;;4437760;28;656486;-72